Time;durP1;ratioP1;P1;durP2;ratioP2;P2;SDS_P1;SDS_P2;PMS_P1;PMS_P2;Temp;Humidity;BMP_temperature;BMP_pressure;BME280_temperature;BME280_humidity;BME280_pressure;Samples;Min_cycle;Max_cycle;Signal;HPM_P1;HPM_P2
2021/09/04 00:00:02;;;;;;;8.52;7.32;;;;;;;17.32;69.59;95743.44;5013272;28;20278;-85
2021/09/04 00:02:29;;;;;;;8.45;7.60;;;;;;;17.31;69.42;95740.06;5012757;28;20241;-86
2021/09/04 00:04:55;;;;;;;8.20;7.35;;;;;;;17.17;69.66;95741.16;5013084;28;20233;-85
2021/09/04 00:07:23;;;;;;;8.63;7.72;;;;;;;17.07;70.67;95739.06;5013141;28;20528;-85
2021/09/04 00:09:51;;;;;;;8.45;7.68;;;;;;;17.10;70.45;95737.84;5013637;28;20285;-84
2021/09/04 00:12:18;;;;;;;8.20;7.40;;;;;;;17.09;70.70;95737.03;5012940;28;20213;-85
2021/09/04 00:14:44;;;;;;;8.43;7.63;;;;;;;17.17;70.24;95738.56;5012392;28;20215;-82
2021/09/04 00:17:11;;;;;;;8.18;7.40;;;;;;;17.22;69.56;95730.91;5013179;28;20889;-81
2021/09/04 00:19:38;;;;;;;8.27;7.28;;;;;;;17.14;69.91;95733.78;5013685;28;20207;-85
2021/09/04 00:22:05;;;;;;;8.55;7.68;;;;;;;17.07;69.93;95727.84;5013438;28;20219;-84
2021/09/04 00:24:31;;;;;;;7.95;7.15;;;;;;;16.95;70.75;95732.94;5012534;28;20203;-87
2021/09/04 00:26:59;;;;;;;7.70;6.88;;;;;;;16.99;70.27;95722.91;5012843;28;20202;-84
2021/09/04 00:29:26;;;;;;;8.07;7.25;;;;;;;16.93;70.40;95727.16;5012819;28;20203;-82
2021/09/04 00:31:53;;;;;;;7.88;7.05;;;;;;;16.88;70.55;95727.00;5012485;28;20198;-83
2021/09/04 00:34:19;;;;;;;8.27;7.40;;;;;;;16.79;70.70;95718.66;5012644;28;20206;-84
2021/09/04 00:36:45;;;;;;;8.35;7.45;;;;;;;16.79;70.48;95716.06;5012624;28;20922;-86
2021/09/04 00:39:12;;;;;;;7.20;6.60;;;;;;;16.88;70.69;95714.78;5013250;28;20214;-85
2021/09/04 00:41:38;;;;;;;7.38;6.68;;;;;;;16.95;70.22;95719.91;5012447;28;20210;-85
2021/09/04 00:44:07;;;;;;;7.68;6.55;;;;;;;16.99;69.83;95726.31;5012752;28;20230;-85
2021/09/04 00:46:33;;;;;;;7.00;6.40;;;;;;;17.02;69.61;95720.69;5012508;28;20226;-84
2021/09/04 00:49:00;;;;;;;8.70;6.75;;;;;;;16.97;69.30;95717.13;5011843;28;20195;-87
2021/09/04 00:51:27;;;;;;;7.30;6.60;;;;;;;16.91;69.74;95718.78;5012386;28;20202;-84
2021/09/04 00:53:53;;;;;;;6.57;5.97;;;;;;;16.81;69.75;95715.84;5012922;28;20290;-83
2021/09/04 00:56:20;;;;;;;9.35;7.05;;;;;;;16.73;69.83;95716.91;5011560;28;20253;-84
2021/09/04 00:58:46;;;;;;;8.15;6.68;;;;;;;16.75;70.18;95714.88;5011361;28;20223;-86
2021/09/04 01:01:14;;;;;;;7.28;6.57;;;;;;;16.74;69.82;95728.13;5012429;28;20203;-86
2021/09/04 01:03:40;;;;;;;8.30;6.97;;;;;;;16.72;70.19;95725.72;5012020;28;20246;-86
2021/09/04 01:06:07;;;;;;;6.80;6.20;;;;;;;16.75;69.86;95722.69;5011954;28;20223;-86
2021/09/04 01:08:34;;;;;;;7.43;6.68;;;;;;;16.72;70.18;95720.53;5011328;28;20214;-84
2021/09/04 01:11:00;;;;;;;8.02;6.60;;;;;;;16.71;70.46;95720.72;5011285;28;20222;-83
2021/09/04 01:13:26;;;;;;;7.40;6.70;;;;;;;16.77;69.87;95723.25;5011847;28;20203;-86
2021/09/04 01:15:53;;;;;;;7.40;6.45;;;;;;;16.76;69.78;95721.66;5011658;28;20229;-86
2021/09/04 01:18:23;;;;;;;6.80;6.20;;;;;;;16.81;69.59;95727.03;5011685;28;20556;-85
2021/09/04 01:20:50;;;;;;;7.15;6.45;;;;;;;16.76;69.89;95718.28;5012355;28;20213;-84
2021/09/04 01:23:16;;;;;;;7.05;6.43;;;;;;;16.65;70.24;95711.16;5011379;28;20232;-85
2021/09/04 01:25:43;;;;;;;7.72;5.90;;;;;;;16.57;70.20;95705.19;5010874;28;20242;-87
2021/09/04 01:28:11;;;;;;;7.28;6.53;;;;;;;16.59;69.78;95718.75;5010806;28;20206;-84
2021/09/04 01:30:37;;;;;;;7.32;6.43;;;;;;;16.63;69.73;95710.53;5010543;28;20210;-85
2021/09/04 01:33:04;;;;;;;6.70;6.10;;;;;;;16.60;69.50;95706.56;5011394;28;20203;-85
2021/09/04 01:35:30;;;;;;;7.70;7.00;;;;;;;16.54;69.61;95710.03;5011451;28;20232;-85
2021/09/04 01:37:56;;;;;;;7.28;6.57;;;;;;;16.45;69.77;95711.25;5010978;28;20752;-85
2021/09/04 01:40:23;;;;;;;7.10;6.50;;;;;;;16.49;69.85;95700.25;5010827;28;20294;-84
2021/09/04 01:42:50;;;;;;;7.07;6.38;;;;;;;16.56;69.39;95700.19;5010950;28;20229;-86
2021/09/04 01:45:18;;;;;;;7.05;6.30;;;;;;;16.57;69.25;95699.19;5011215;28;20222;-85
2021/09/04 01:47:45;;;;;;;7.35;6.50;;;;;;;16.53;69.39;95695.44;5011589;28;20203;-84
2021/09/04 01:50:13;;;;;;;7.00;6.30;;;;;;;16.41;70.17;95699.69;5010892;28;20199;-84
2021/09/04 01:52:41;;;;;;;8.45;6.55;;;;;;;16.27;70.51;95698.97;5011217;28;20638;-84
2021/09/04 01:55:10;;;;;;;7.15;6.45;;;;;;;16.23;70.59;95703.78;5010459;28;20261;-84
2021/09/04 01:57:37;;;;;;;7.30;6.68;;;;;;;16.30;70.56;95702.97;5010216;28;20230;-84
2021/09/04 02:00:05;;;;;;;9.55;6.70;;;;;;;16.36;70.27;95696.91;5010882;28;20199;-85
2021/09/04 02:02:33;;;;;;;6.97;6.38;;;;;;;16.35;70.62;95698.75;5012306;28;20229;-84
2021/09/04 02:05:00;;;;;;;8.15;6.63;;;;;;;16.38;70.23;95706.09;5014589;28;20705;-81
2021/09/04 02:07:27;;;;;;;6.97;6.38;;;;;;;16.35;70.32;95705.75;5016012;28;20207;-84
2021/09/04 02:09:53;;;;;;;7.30;6.63;;;;;;;16.33;70.25;95699.97;5015756;28;20210;-84
2021/09/04 02:12:20;;;;;;;9.02;6.53;;;;;;;16.27;70.45;95701.56;5015076;28;20210;-87
2021/09/04 02:14:46;;;;;;;7.35;6.65;;;;;;;16.21;70.67;95692.00;5014641;28;20559;-85
2021/09/04 02:17:13;;;;;;;7.55;6.68;;;;;;;16.23;70.55;95703.00;5013728;28;20198;-84
2021/09/04 02:19:40;;;;;;;7.88;6.80;;;;;;;16.28;70.45;95695.38;5014030;28;20211;-84
2021/09/04 02:22:07;;;;;;;7.40;6.70;;;;;;;16.23;70.61;95692.59;5013592;28;20202;-84
2021/09/04 02:24:33;;;;;;;8.73;6.82;;;;;;;16.32;69.67;95693.16;5011114;28;20241;-84
2021/09/04 02:27:00;;;;;;;6.90;6.20;;;;;;;16.11;70.24;95689.88;5005589;28;20200;-86
2021/09/04 02:29:26;;;;;;;7.43;6.40;;;;;;;16.00;70.21;95685.31;4994814;28;20211;-87
2021/09/04 02:31:53;;;;;;;7.47;6.78;;;;;;;15.93;70.79;95684.59;4995470;28;20199;-86
2021/09/04 02:34:19;;;;;;;7.45;6.75;;;;;;;15.85;71.03;95682.22;4994740;28;20215;-84
2021/09/04 02:36:47;;;;;;;8.15;6.82;;;;;;;15.89;70.89;95680.78;4993558;28;20717;-82
2021/09/04 02:39:13;;;;;;;7.35;6.60;;;;;;;15.89;70.65;95688.59;4994135;28;20211;-85
2021/09/04 02:41:40;;;;;;;7.43;6.57;;;;;;;15.93;70.48;95684.59;5009522;28;20654;-84
2021/09/04 02:44:06;;;;;;;6.95;6.35;;;;;;;15.84;71.21;95686.59;5014596;28;20230;-83
2021/09/04 02:46:33;;;;;;;6.97;6.35;;;;;;;15.84;71.03;95684.00;5015463;28;20219;-85
2021/09/04 02:48:59;;;;;;;6.95;6.32;;;;;;;15.83;70.78;95687.59;5015349;28;20207;-85
2021/09/04 02:51:26;;;;;;;7.07;6.30;;;;;;;15.82;70.76;95678.22;5015497;28;20202;-86
2021/09/04 02:53:53;;;;;;;17.50;6.57;;;;;;;15.75;70.94;95677.47;5015267;28;20199;-84
2021/09/04 02:56:20;;;;;;;8.77;6.50;;;;;;;15.78;70.67;95676.22;5013930;28;20223;-85
2021/09/04 02:58:46;;;;;;;7.30;6.57;;;;;;;15.83;70.24;95679.81;5013504;28;20210;-85
2021/09/04 03:01:13;;;;;;;6.93;6.32;;;;;;;15.87;69.81;95675.81;5014372;28;20717;-88
2021/09/04 03:03:39;;;;;;;6.75;6.15;;;;;;;15.85;69.43;95670.03;5014558;28;20234;-85
2021/09/04 03:06:05;;;;;;;9.07;6.55;;;;;;;15.74;69.87;95672.47;5013936;28;20622;-85
2021/09/04 03:08:33;;;;;;;7.47;6.75;;;;;;;15.64;69.91;95678.09;5013904;28;20208;-84
2021/09/04 03:11:37;;;;;;;7.85;6.40;;;;;;;15.57;70.58;95673.94;5014691;28;20202;-87
2021/09/04 03:14:03;;;;;;;7.93;6.10;;;;;;;15.62;70.31;95671.50;5011137;28;20207;-86
2021/09/04 03:16:30;;;;;;;7.63;6.32;;;;;;;15.54;70.73;95675.13;5012992;28;20226;-86
2021/09/04 03:18:57;;;;;;;7.03;6.33;;;;;;;15.48;70.64;95674.13;5013261;28;20202;-85
2021/09/04 03:21:23;;;;;;;7.10;6.40;;;;;;;15.45;70.96;95677.13;5013186;28;20217;-85
2021/09/04 03:26:59;;;;;;;7.13;6.35;;;;;;;15.62;70.59;95676.69;5078012;23;21028;-84
2021/09/04 03:29:25;;;;;;;7.43;6.53;;;;;;;15.60;70.00;95670.91;5034060;28;20844;-86
2021/09/04 03:32:13;;;;;;;6.72;6.13;;;;;;;15.53;70.91;95673.53;5033987;28;20213;-88
2021/09/04 03:34:40;;;;;;;7.60;6.57;;;;;;;15.53;70.56;95679.50;5033514;28;20678;-90
2021/09/04 03:37:07;;;;;;;7.35;6.65;;;;;;;15.49;70.40;95670.53;5032990;28;20225;-87
2021/09/04 03:39:33;;;;;;;7.38;6.28;;;;;;;15.57;69.92;95671.34;5033034;28;20198;-86
2021/09/04 03:42:14;;;;;;;7.20;6.13;;;;;;;15.63;69.59;95667.91;5033116;28;20197;-84
2021/09/04 03:44:40;;;;;;;6.30;5.70;;;;;;;15.51;69.87;95665.13;5032533;28;20229;-86
2021/09/04 03:47:07;;;;;;;7.10;6.40;;;;;;;15.34;70.04;95667.38;5032250;28;20669;-84
2021/09/04 03:49:33;;;;;;;7.00;6.30;;;;;;;15.37;70.00;95666.19;5031214;28;20198;-83
2021/09/04 03:52:00;;;;;;;6.23;5.63;;;;;;;15.36;70.22;95672.38;5031499;28;20217;-86
2021/09/04 03:54:26;;;;;;;7.07;6.47;;;;;;;15.39;70.12;95675.38;5031901;28;20202;-85
2021/09/04 03:56:53;;;;;;;7.00;6.30;;;;;;;15.33;70.32;95677.97;5031877;28;20237;-86
2021/09/04 03:59:21;;;;;;;7.50;6.37;;;;;;;15.34;69.91;95676.97;5031668;28;20202;-84
2021/09/04 04:01:48;;;;;;;6.53;5.93;;;;;;;15.25;69.72;95671.19;5013043;28;20596;-85
2021/09/04 04:04:14;;;;;;;6.87;6.20;;;;;;;15.12;70.56;95674.63;5010879;28;20632;-85
2021/09/04 04:06:40;;;;;;;6.83;6.20;;;;;;;15.10;70.97;95676.63;5028310;28;20320;-84
2021/09/04 04:09:07;;;;;;;6.80;6.20;;;;;;;15.08;70.70;95677.81;5031299;28;20213;-84
2021/09/04 04:11:34;;;;;;;6.90;6.20;;;;;;;15.04;70.92;95685.19;5031733;28;20201;-85
2021/09/04 04:14:00;;;;;;;7.03;6.33;;;;;;;14.94;71.67;95679.63;5031374;28;20198;-84
2021/09/04 04:16:28;;;;;;;6.83;6.23;;;;;;;14.96;71.39;95682.81;5032006;28;20624;-87
2021/09/04 04:18:55;;;;;;;7.67;6.87;;;;;;;14.90;72.62;95677.63;5031634;28;20206;-84
2021/09/04 04:21:22;;;;;;;6.80;6.07;;;;;;;14.88;72.15;95682.22;5022646;28;20199;-83
2021/09/04 04:23:48;;;;;;;7.23;6.43;;;;;;;14.79;72.45;95679.84;5010946;28;20226;-84
2021/09/04 04:26:14;;;;;;;7.40;6.70;;;;;;;14.85;72.30;95673.84;5017095;28;20234;-84
2021/09/04 04:28:41;;;;;;;6.53;5.80;;;;;;;14.87;72.10;95676.22;5030901;28;20203;-84
2021/09/04 04:31:08;;;;;;;7.07;6.03;;;;;;;14.91;71.94;95669.66;5030769;28;20206;-84
2021/09/04 04:33:35;;;;;;;6.57;5.97;;;;;;;15.00;71.12;95668.47;5030169;28;20232;-83
2021/09/04 04:36:02;;;;;;;6.20;5.60;;;;;;;15.06;70.85;95672.81;5030386;28;20218;-84
2021/09/04 04:38:28;;;;;;;6.40;5.80;;;;;;;15.13;70.82;95678.00;5016962;28;20198;-83
2021/09/04 04:40:55;;;;;;;6.57;6.00;;;;;;;15.14;70.39;95680.41;5020005;28;20201;-85
2021/09/04 04:43:21;;;;;;;7.17;5.90;;;;;;;15.12;70.40;95679.00;5030579;28;20202;-85
2021/09/04 04:45:47;;;;;;;6.97;6.30;;;;;;;15.09;70.69;95672.44;5030548;28;20229;-84
2021/09/04 04:48:15;;;;;;;6.73;6.03;;;;;;;15.06;71.93;95678.00;5030483;28;20206;-83
2021/09/04 04:50:43;;;;;;;8.02;6.15;;;;;;;15.05;72.53;95675.63;5019671;28;20199;-84
2021/09/04 04:53:11;;;;;;;8.60;7.20;;;;;;;14.93;73.02;95678.03;5012500;28;20218;-88
2021/09/04 04:55:38;;;;;;;7.23;6.53;;;;;;;14.93;73.08;95678.03;5016501;28;20396;-86
2021/09/04 04:58:04;;;;;;;6.23;5.67;;;;;;;14.97;72.92;95676.63;5028972;28;20573;-87
2021/09/04 05:00:31;;;;;;;8.70;6.43;;;;;;;15.04;75.64;95682.59;5029485;28;20202;-88
2021/09/04 05:02:57;;;;;;;10.50;5.90;;;;;;;15.28;77.99;95673.38;5028822;28;20226;-87
2021/09/04 05:05:24;;;;;;;8.43;6.07;;;;;;;15.44;73.97;95675.53;5029279;28;20280;-85
2021/09/04 05:07:51;;;;;;;6.68;5.97;;;;;;;15.63;73.66;95679.09;5029447;28;20209;-85
2021/09/04 05:10:18;;;;;;;6.35;5.75;;;;;;;15.96;74.20;95678.97;5029899;28;20209;-85
2021/09/04 05:12:45;;;;;;;7.90;5.80;;;;;;;16.33;72.66;95674.78;5028722;28;20206;-85
2021/09/04 05:15:12;;;;;;;6.60;5.63;;;;;;;16.41;68.71;95671.91;5029758;28;20221;-83
2021/09/04 05:17:38;;;;;;;6.15;5.65;;;;;;;16.14;68.54;95676.47;5031945;28;20202;-86
2021/09/04 05:20:06;;;;;;;6.22;5.63;;;;;;;15.99;69.36;95677.75;5033770;28;20206;-84
2021/09/04 05:22:32;;;;;;;6.47;5.60;;;;;;;16.02;69.51;95683.31;5034999;28;20206;-86
2021/09/04 05:25:00;;;;;;;8.02;6.20;;;;;;;15.97;69.81;95685.72;5030647;28;20236;-85
2021/09/04 05:27:27;;;;;;;6.20;5.60;;;;;;;15.84;70.33;95688.41;5030778;28;20210;-84
2021/09/04 05:29:53;;;;;;;7.60;5.88;;;;;;;15.75;71.93;95681.88;5030320;28;20630;-85
2021/09/04 05:32:23;;;;;;;6.70;5.75;;;;;;;15.74;71.92;95681.06;5030906;28;20206;-83
2021/09/04 05:34:49;;;;;;;6.60;6.00;;;;;;;15.79;72.58;95686.41;5027215;28;20720;-84
2021/09/04 05:37:16;;;;;;;7.75;7.03;;;;;;;15.85;72.12;95684.81;5013861;28;20617;-85
2021/09/04 05:39:42;;;;;;;20.30;18.27;;;;;;;15.94;72.06;95693.97;5015434;28;20222;-87
2021/09/04 05:42:10;;;;;;;7.40;6.70;;;;;;;15.98;72.01;95689.94;5034425;28;20633;-84
2021/09/04 05:44:37;;;;;;;7.03;6.28;;;;;;;15.95;73.01;95690.38;5034949;28;20250;-86
2021/09/04 05:47:04;;;;;;;7.15;6.45;;;;;;;15.99;73.12;95686.31;5035016;28;20206;-85
2021/09/04 05:49:30;;;;;;;6.43;5.85;;;;;;;16.11;72.52;95679.50;5034685;28;20664;-85
2021/09/04 05:51:56;;;;;;;7.90;7.10;;;;;;;16.20;72.26;95686.00;5034708;28;20205;-86
2021/09/04 05:54:23;;;;;;;10.68;9.43;;;;;;;16.17;73.82;95683.03;5034243;28;20809;-84
2021/09/04 05:56:49;;;;;;;10.32;9.23;;;;;;;16.16;74.15;95673.69;5034451;28;20218;-84
2021/09/04 05:59:17;;;;;;;9.55;8.50;;;;;;;16.16;74.75;95682.25;5034517;28;20212;-84
2021/09/04 06:01:45;;;;;;;7.47;6.60;;;;;;;16.20;74.28;95680.81;5034889;28;20206;-86
2021/09/04 06:04:11;;;;;;;7.22;6.57;;;;;;;16.22;74.81;95685.81;5034100;28;20233;-84
2021/09/04 06:06:38;;;;;;;9.63;8.73;;;;;;;16.33;74.59;95674.78;5034370;28;20225;-85
2021/09/04 06:09:05;;;;;;;13.25;11.95;;;;;;;16.45;74.05;95677.47;5026260;28;20202;-84
2021/09/04 06:11:31;;;;;;;8.50;7.55;;;;;;;16.48;74.05;95679.66;5023567;28;20282;-85
2021/09/04 06:13:58;;;;;;;6.97;6.38;;;;;;;16.52;74.06;95681.63;5033865;28;20199;-85
2021/09/04 06:16:26;;;;;;;9.25;7.57;;;;;;;16.50;74.61;95686.25;5033354;28;20218;-84
2021/09/04 06:18:53;;;;;;;8.77;5.93;;;;;;;16.55;74.42;95689.00;5037512;28;20213;-86
2021/09/04 06:21:19;;;;;;;6.13;5.63;;;;;;;16.65;74.13;95690.38;5024839;28;20194;-84
2021/09/04 06:23:46;;;;;;;7.70;6.78;;;;;;;16.74;73.93;95689.13;5029972;28;20565;-85
2021/09/04 06:26:12;;;;;;;6.90;6.13;;;;;;;16.75;74.75;95681.06;5019742;28;20226;-85
2021/09/04 06:28:38;;;;;;;6.57;5.97;;;;;;;16.73;75.53;95692.72;5037704;28;20194;-84
2021/09/04 06:31:05;;;;;;;8.25;6.10;;;;;;;16.70;76.03;95695.72;5037120;28;20567;-85
2021/09/04 06:33:33;;;;;;;6.70;5.47;;;;;;;16.81;76.22;95695.84;5035297;28;20717;-84
2021/09/04 06:35:59;;;;;;;9.13;6.75;;;;;;;17.02;75.26;95693.88;5034790;28;20721;-86
2021/09/04 06:38:25;;;;;;;7.53;6.82;;;;;;;17.19;74.33;95695.69;5026780;28;20237;-89
2021/09/04 06:40:52;;;;;;;12.88;11.57;;;;;;;17.33;74.16;95692.97;5033418;28;20705;-85
2021/09/04 06:43:19;;;;;;;7.95;7.25;;;;;;;17.41;75.06;95692.69;5030060;28;20256;-84
2021/09/04 06:45:45;;;;;;;7.28;6.57;;;;;;;17.52;74.75;95686.75;5014987;28;20226;-84
2021/09/04 06:48:11;;;;;;;7.57;6.88;;;;;;;17.64;74.22;95689.44;5012426;28;20218;-84
2021/09/04 06:50:39;;;;;;;7.60;6.90;;;;;;;17.78;74.27;95702.13;5011178;28;20206;-86
2021/09/04 06:53:06;;;;;;;7.00;6.30;;;;;;;18.01;73.36;95695.44;5025511;28;20206;-84
2021/09/04 06:55:32;;;;;;;6.53;6.03;;;;;;;18.24;72.67;95693.75;5026351;28;20314;-85
2021/09/04 06:57:58;;;;;;;7.05;6.40;;;;;;;18.53;72.39;95697.31;5030795;28;20202;-84
2021/09/04 07:00:25;;;;;;;7.07;6.43;;;;;;;18.71;71.12;95695.69;5031274;28;20202;-84
2021/09/04 07:02:52;;;;;;;10.57;9.48;;;;;;;18.91;70.55;95706.59;5030240;28;20234;-85
2021/09/04 07:05:20;;;;;;;15.45;13.55;;;;;;;18.96;70.32;95701.50;5030248;28;20325;-85
2021/09/04 07:07:48;;;;;;;8.43;7.63;;;;;;;19.15;70.07;95707.44;5030617;28;20210;-86
2021/09/04 07:10:15;;;;;;;7.40;6.70;;;;;;;19.29;69.97;95706.97;5031419;28;20210;-85
2021/09/04 07:12:41;;;;;;;7.50;6.72;;;;;;;19.56;69.24;95716.97;5031721;28;20293;-87
2021/09/04 07:15:09;;;;;;;7.47;6.78;;;;;;;19.74;68.49;95714.22;5030675;28;20613;-86
2021/09/04 07:17:35;;;;;;;7.82;7.15;;;;;;;19.80;68.24;95710.69;5029878;28;20253;-85
2021/09/04 07:20:02;;;;;;;7.30;6.60;;;;;;;19.84;67.99;95711.81;5011252;28;20203;-86
2021/09/04 07:22:28;;;;;;;6.95;6.32;;;;;;;19.93;67.54;95709.63;5011920;28;20199;-86
2021/09/04 07:24:56;;;;;;;7.35;6.75;;;;;;;19.81;67.94;95711.50;5011947;28;20226;-86
2021/09/04 07:27:22;;;;;;;7.50;6.68;;;;;;;19.88;67.89;95710.31;5027290;28;20543;-87
2021/09/04 07:29:49;;;;;;;7.28;6.68;;;;;;;19.93;68.54;95715.66;5032560;28;20206;-86
2021/09/04 07:32:15;;;;;;;7.30;6.60;;;;;;;20.06;68.68;95721.63;5032751;28;20202;-85
2021/09/04 07:34:42;;;;;;;7.00;6.40;;;;;;;20.30;68.55;95710.06;5032948;28;20576;-87
2021/09/04 07:37:08;;;;;;;6.95;6.22;;;;;;;20.40;67.56;95712.88;5033380;28;20202;-85
2021/09/04 07:39:34;;;;;;;7.20;6.60;;;;;;;20.48;67.77;95714.34;5032271;28;20209;-85
2021/09/04 07:42:03;;;;;;;7.47;6.88;;;;;;;20.61;67.18;95714.03;5032017;28;20210;-87
2021/09/04 07:44:29;;;;;;;7.43;6.68;;;;;;;20.84;66.17;95718.34;5031916;28;20226;-87
2021/09/04 07:46:56;;;;;;;9.30;6.97;;;;;;;20.97;65.32;95712.81;5031904;28;20487;-86
2021/09/04 07:49:22;;;;;;;7.75;7.03;;;;;;;21.00;65.24;95715.72;5031532;28;20209;-86
2021/09/04 07:51:49;;;;;;;7.55;6.82;;;;;;;21.09;65.24;95717.97;5032063;28;20205;-84
2021/09/04 07:54:15;;;;;;;7.55;6.80;;;;;;;21.25;64.87;95720.59;5032013;28;20234;-86
2021/09/04 07:56:42;;;;;;;7.50;6.80;;;;;;;21.26;64.45;95724.00;5031860;28;20226;-87
2021/09/04 07:59:09;;;;;;;7.22;6.53;;;;;;;21.43;63.81;95718.75;5031074;28;20203;-85
2021/09/04 08:01:36;;;;;;;7.32;6.72;;;;;;;21.56;63.68;95721.00;5031249;28;20290;-87
2021/09/04 08:04:02;;;;;;;7.47;6.88;;;;;;;21.69;63.06;95726.72;5030758;28;20253;-85
2021/09/04 08:06:29;;;;;;;7.00;6.30;;;;;;;21.77;62.86;95728.09;5031178;28;20647;-86
2021/09/04 08:08:55;;;;;;;7.70;6.95;;;;;;;22.01;62.16;95723.47;5031351;28;20213;-87
2021/09/04 08:11:22;;;;;;;7.60;6.80;;;;;;;22.11;61.36;95731.47;5030936;28;20743;-86
2021/09/04 08:13:48;;;;;;;7.63;7.03;;;;;;;22.13;59.73;95729.34;5031991;28;20206;-86
2021/09/04 08:16:16;;;;;;;7.47;6.65;;;;;;;22.29;60.43;95723.25;5031739;28;20257;-86
2021/09/04 08:18:43;;;;;;;7.53;6.78;;;;;;;22.25;60.15;95730.03;5031907;28;20205;-86
2021/09/04 08:21:10;;;;;;;14.15;7.50;;;;;;;22.26;60.03;95726.38;5032381;28;20209;-87
2021/09/04 08:23:36;;;;;;;10.70;7.60;;;;;;;22.44;58.37;95732.31;5031551;28;20220;-85
2021/09/04 08:26:03;;;;;;;7.68;6.93;;;;;;;22.38;58.56;95726.22;5030756;28;20245;-86
2021/09/04 08:28:29;;;;;;;8.38;7.40;;;;;;;22.55;58.80;95723.50;5031402;28;20198;-86
2021/09/04 08:30:56;;;;;;;8.38;6.88;;;;;;;22.73;58.08;95731.03;5030855;28;20692;-83
2021/09/04 08:33:23;;;;;;;8.00;6.75;;;;;;;22.93;57.63;95727.81;5032201;28;20206;-83
2021/09/04 08:35:50;;;;;;;6.78;6.18;;;;;;;23.09;58.35;95729.53;5030690;28;20237;-84
2021/09/04 08:38:16;;;;;;;7.55;6.50;;;;;;;23.34;56.30;95726.28;5031334;28;20202;-86
2021/09/04 08:40:46;;;;;;;7.45;6.50;;;;;;;23.60;57.08;95732.53;5030938;28;20225;-86
2021/09/04 08:43:13;;;;;;;6.43;5.93;;;;;;;23.86;56.34;95734.22;5030899;28;20197;-87
2021/09/04 08:45:40;;;;;;;7.05;6.10;;;;;;;24.08;55.87;95734.84;5030092;28;20301;-85
2021/09/04 08:48:08;;;;;;;7.00;6.40;;;;;;;24.18;54.95;95735.94;5031177;28;20198;-86
2021/09/04 08:50:37;;;;;;;7.43;6.65;;;;;;;24.28;54.23;95739.41;5030907;28;20198;-86
2021/09/04 08:53:04;;;;;;;6.30;5.78;;;;;;;24.39;54.19;95733.16;5030379;28;20208;-86
2021/09/04 08:55:31;;;;;;;7.20;6.70;;;;;;;24.50;52.53;95731.31;5030891;28;20226;-88
2021/09/04 08:57:58;;;;;;;6.68;6.13;;;;;;;24.57;53.74;95723.97;5032658;28;20202;-88
2021/09/04 09:00:29;;;;;;;6.70;6.13;;;;;;;24.77;52.83;95724.00;5033854;28;20205;-85
2021/09/04 09:02:56;;;;;;;7.25;6.53;;;;;;;24.90;53.14;95729.78;5032679;28;20244;-86
2021/09/04 09:05:23;;;;;;;6.72;6.13;;;;;;;25.05;52.81;95732.44;5032100;28;20230;-85
2021/09/04 09:07:51;;;;;;;7.13;6.40;;;;;;;25.08;52.66;95727.44;5032372;28;20202;-85
2021/09/04 09:10:36;;;;;;;6.63;6.03;;;;;;;25.25;51.82;95727.16;5031910;28;20202;-86
2021/09/04 09:13:04;;;;;;;6.97;6.43;;;;;;;25.21;51.32;95723.47;5036338;28;20202;-88
2021/09/04 09:15:33;;;;;;;7.70;7.00;;;;;;;25.38;51.14;95718.75;5035508;28;20280;-85
2021/09/04 09:18:02;;;;;;;7.63;6.38;;;;;;;25.44;50.01;95722.91;5035809;28;20208;-86
2021/09/04 09:20:29;;;;;;;7.20;6.60;;;;;;;25.57;50.23;95726.88;5035807;28;20820;-86
2021/09/04 09:23:04;;;;;;;6.38;5.78;;;;;;;25.52;50.77;95710.25;5035593;28;20584;-86
2021/09/04 09:25:33;;;;;;;6.80;6.13;;;;;;;25.53;49.21;95717.91;5034832;28;20225;-86
2021/09/04 09:28:01;;;;;;;6.18;5.60;;;;;;;25.67;47.92;95716.31;5015412;28;20670;-86
2021/09/04 09:30:35;;;;;;;6.38;5.78;;;;;;;25.26;47.30;95720.06;5015613;28;20203;-87
2021/09/04 09:33:03;;;;;;;7.20;5.68;;;;;;;25.22;47.16;95716.34;5015085;28;20206;-86
2021/09/04 09:35:31;;;;;;;6.20;5.60;;;;;;;25.53;48.29;95714.47;5014874;28;20225;-87
2021/09/04 09:38:01;;;;;;;6.75;6.20;;;;;;;25.54;48.67;95718.69;5016049;28;20289;-89
2021/09/04 09:40:27;;;;;;;6.75;6.03;;;;;;;25.55;46.54;95715.78;5021063;28;20198;-87
2021/09/04 09:42:54;;;;;;;6.15;5.55;;;;;;;25.82;47.96;95718.09;5035353;28;20218;-87
2021/09/04 09:45:20;;;;;;;6.68;6.07;;;;;;;26.03;46.47;95726.75;5035242;28;20237;-85
2021/09/04 09:47:51;;;;;;;7.35;6.18;;;;;;;26.14;46.94;95712.47;5034793;28;20195;-86
2021/09/04 09:50:18;;;;;;;6.07;5.57;;;;;;;26.17;46.02;95711.13;5034935;28;20197;-86
2021/09/04 09:52:45;;;;;;;5.22;4.82;;;;;;;25.98;43.73;95709.06;5034780;28;20206;-86
2021/09/04 09:55:13;;;;;;;6.82;4.93;;;;;;;25.95;44.97;95714.13;5033996;28;20304;-86
2021/09/04 09:57:41;;;;;;;5.13;4.72;;;;;;;25.69;43.76;95702.84;5033812;28;20608;-87
2021/09/04 10:00:09;;;;;;;6.40;5.00;;;;;;;25.45;43.52;95708.69;5033848;28;20228;-86
2021/09/04 10:02:36;;;;;;;5.80;5.30;;;;;;;25.62;45.78;95697.84;5033150;28;20241;-87
2021/09/04 10:05:03;;;;;;;5.93;5.30;;;;;;;25.63;43.60;95703.94;5033667;28;20237;-86
2021/09/04 10:07:29;;;;;;;5.32;4.93;;;;;;;25.38;44.30;95697.66;5034089;28;20210;-86
2021/09/04 10:09:56;;;;;;;5.35;4.95;;;;;;;25.12;45.30;95696.88;5033564;28;20198;-86
2021/09/04 10:12:24;;;;;;;5.60;5.10;;;;;;;25.20;45.96;95702.69;5033946;28;20232;-87
2021/09/04 10:14:51;;;;;;;5.60;5.05;;;;;;;25.37;45.18;95703.19;5033321;28;20202;-85
2021/09/04 10:17:21;;;;;;;6.53;5.00;;;;;;;25.12;45.92;95699.53;5033044;28;20289;-86
2021/09/04 10:19:49;;;;;;;5.47;4.97;;;;;;;24.85;46.84;95693.69;5033661;28;20198;-87
2021/09/04 10:22:16;;;;;;;5.45;5.00;;;;;;;24.89;46.82;95692.13;5032774;28;20252;-86
2021/09/04 10:24:48;;;;;;;5.80;5.20;;;;;;;25.09;46.58;95686.88;5033793;28;20269;-87
2021/09/04 10:27:27;;;;;;;8.32;4.88;;;;;;;25.19;46.08;95682.66;5033335;28;20226;-88
2021/09/04 10:29:55;;;;;;;5.25;4.30;;;;;;;25.03;43.99;95685.28;5033351;28;20213;-86
2021/09/04 10:32:22;;;;;;;5.78;4.30;;;;;;;24.98;45.48;95685.31;5033974;28;20407;-86
2021/09/04 10:35:02;;;;;;;4.97;4.35;;;;;;;24.90;45.79;95692.91;5033014;28;20562;-85
2021/09/04 10:37:29;;;;;;;5.05;4.57;;;;;;;24.73;44.21;95688.69;5033364;28;20206;-86
2021/09/04 10:40:00;;;;;;;4.80;4.40;;;;;;;24.87;44.53;95682.88;5033087;28;20669;-87
2021/09/04 10:42:28;;;;;;;5.05;4.65;;;;;;;24.98;45.20;95681.88;5033487;28;20204;-85
2021/09/04 10:45:00;;;;;;;7.65;4.75;;;;;;;25.07;46.47;95678.44;5033109;28;20206;-87
2021/09/04 10:47:27;;;;;;;4.85;4.45;;;;;;;25.15;43.95;95678.97;5033032;28;20222;-87
2021/09/04 10:50:12;;;;;;;5.88;4.70;;;;;;;25.16;45.37;95677.91;5032894;28;20213;-85
2021/09/04 10:53:05;;;;;;;4.32;4.03;;;;;;;24.84;45.31;95688.69;5033126;28;20209;-86
2021/09/04 10:55:33;;;;;;;5.50;5.00;;;;;;;24.72;45.61;95694.22;5031646;28;20272;-86
2021/09/04 10:58:06;;;;;;;4.30;4.00;;;;;;;24.88;44.61;95681.84;5032416;28;20203;-85
2021/09/04 11:00:39;;;;;;;5.43;4.57;;;;;;;25.06;44.26;95678.69;5032756;28;20221;-88
2021/09/04 11:03:07;;;;;;;5.25;4.85;;;;;;;25.00;45.95;95690.31;5031943;28;20261;-85
2021/09/04 11:05:51;;;;;;;5.05;4.55;;;;;;;25.03;47.14;95690.56;5032184;28;20234;-86
2021/09/04 11:08:29;;;;;;;5.43;4.93;;;;;;;25.22;46.97;95685.53;5032363;28;20688;-87
2021/09/04 11:11:20;;;;;;;6.28;4.97;;;;;;;25.18;46.81;95681.88;5031957;28;20289;-87
2021/09/04 11:13:48;;;;;;;5.30;4.90;;;;;;;24.94;46.13;95686.06;5032308;28;20206;-86
2021/09/04 11:16:37;;;;;;;5.10;4.60;;;;;;;24.92;46.63;95680.25;5031841;28;20716;-85
2021/09/04 11:19:08;;;;;;;4.95;4.55;;;;;;;24.92;45.97;95691.59;5031672;28;20717;-87
2021/09/04 11:21:59;;;;;;;4.93;4.53;;;;;;;24.81;45.64;95673.44;5031482;28;20209;-85
2021/09/04 11:24:29;;;;;;;5.32;4.82;;;;;;;24.83;46.50;95680.00;5027519;28;20213;-86
2021/09/04 11:26:59;;;;;;;4.80;4.40;;;;;;;24.98;45.36;95666.06;5030862;28;20230;-87
2021/09/04 11:29:26;;;;;;;4.60;4.20;;;;;;;25.01;45.22;95668.19;5031072;28;20225;-86
2021/09/04 11:31:57;;;;;;;4.88;4.47;;;;;;;25.08;45.82;95666.84;5031338;28;20210;-86
2021/09/04 11:34:34;;;;;;;4.47;4.18;;;;;;;25.25;47.03;95663.13;5030522;28;20224;-86
2021/09/04 11:37:18;;;;;;;4.47;4.07;;;;;;;25.13;43.86;95663.41;5031186;28;20221;-86
2021/09/04 11:39:45;;;;;;;4.32;4.00;;;;;;;25.13;43.10;95663.41;5030807;28;20252;-86